Time;durP1;ratioP1;P1;durP2;ratioP2;P2;SDS_P1;SDS_P2;PMS_P1;PMS_P2;Temp;Humidity;BMP_temperature;BMP_pressure;BME280_temperature;BME280_humidity;BME280_pressure;Samples;Min_cycle;Max_cycle;Signal;HPM_P1;HPM_P2
2022/09/21 00:01:33;;;;;;;2.73;2.10;;;9.50;92.00;;;;;;944123;149;27438;-78
2022/09/21 00:04:00;;;;;;;2.20;2.00;;;9.50;92.10;;;;;;942931;149;27458;-77
2022/09/21 00:06:26;;;;;;;2.63;2.43;;;9.40;92.10;;;;;;941891;149;27365;-77
2022/09/21 00:08:53;;;;;;;2.43;2.23;;;9.40;92.20;;;;;;943262;149;27301;-77
2022/09/21 00:11:19;;;;;;;4.00;2.60;;;9.40;92.30;;;;;;944020;149;27320;-77
2022/09/21 00:13:46;;;;;;;2.77;2.50;;;9.40;92.30;;;;;;942889;149;27361;-77
2022/09/21 00:16:12;;;;;;;4.13;2.30;;;9.30;92.30;;;;;;944839;149;27361;-78
2022/09/21 00:18:39;;;;;;;2.90;2.63;;;9.30;92.40;;;;;;944342;149;27772;-78
2022/09/21 00:21:06;;;;;;;5.67;2.73;;;9.20;92.40;;;;;;944277;149;27297;-78
2022/09/21 00:23:33;;;;;;;11.97;3.23;;;9.20;92.50;;;;;;944203;149;27307;-78
2022/09/21 00:26:14;;;;;;;3.73;3.07;;;9.20;92.70;;;;;;943816;148;27419;-78
2022/09/21 00:28:41;;;;;;;3.87;2.43;;;9.10;93.10;;;;;;943422;149;27385;-78
2022/09/21 00:31:08;;;;;;;3.30;2.90;;;9.10;93.50;;;;;;943924;149;27349;-78
2022/09/21 00:33:34;;;;;;;4.67;3.13;;;9.20;94.00;;;;;;943581;149;27439;-78
2022/09/21 00:36:09;;;;;;;9.60;3.53;;;9.20;94.40;;;;;;945102;149;27329;-77
2022/09/21 00:38:36;;;;;;;19.47;4.07;;;9.30;94.70;;;;;;942781;149;27306;-78
2022/09/21 00:41:03;;;;;;;7.20;3.77;;;9.30;94.90;;;;;;944435;149;27376;-78
2022/09/21 00:43:29;;;;;;;15.17;4.17;;;9.40;95.20;;;;;;944508;149;27444;-78
2022/09/21 00:46:02;;;;;;;24.73;5.13;;;9.50;95.40;;;;;;943634;149;27313;-77
2022/09/21 00:48:28;;;;;;;9.70;3.80;;;9.60;95.60;;;;;;932029;149;27760;-78
2022/09/21 00:50:55;;;;;;;8.00;3.83;;;9.70;95.60;;;;;;944320;149;27351;-78
2022/09/21 00:53:21;;;;;;;6.60;3.97;;;9.70;95.70;;;;;;944729;149;27423;-78
2022/09/21 00:55:48;;;;;;;8.60;3.80;;;9.80;95.80;;;;;;944940;149;27757;-78
2022/09/21 00:58:15;;;;;;;11.07;3.87;;;9.90;95.80;;;;;;943340;149;28065;-78
2022/09/21 01:00:42;;;;;;;15.93;4.77;;;10.00;95.70;;;;;;943669;149;27341;-78
2022/09/21 01:03:08;;;;;;;11.87;4.43;;;10.00;95.70;;;;;;943799;149;27478;-78
2022/09/21 01:05:34;;;;;;;11.60;4.33;;;10.10;95.60;;;;;;944246;149;27409;-78
2022/09/21 01:08:01;;;;;;;9.97;4.47;;;10.20;95.50;;;;;;944137;149;27358;-78
2022/09/21 01:10:28;;;;;;;5.67;3.90;;;10.20;95.40;;;;;;944069;149;27897;-78
2022/09/21 01:13:06;;;;;;;11.27;4.30;;;10.20;95.30;;;;;;942528;149;27333;-78
2022/09/21 01:15:47;;;;;;;15.23;4.43;;;10.20;95.20;;;;;;944618;149;27327;-78
2022/09/21 01:18:20;;;;;;;19.13;4.83;;;10.30;95.10;;;;;;944774;149;27442;-78
2022/09/21 01:20:52;;;;;;;14.13;4.13;;;10.30;95.00;;;;;;934884;149;27377;-78
2022/09/21 01:23:39;;;;;;;13.70;4.03;;;10.30;95.00;;;;;;942776;149;27432;-78
2022/09/21 01:26:33;;;;;;;8.60;4.13;;;10.20;94.90;;;;;;944358;149;27377;-78
2022/09/21 01:29:12;;;;;;;7.20;3.87;;;10.20;94.70;;;;;;944467;149;27467;-78
2022/09/21 01:31:44;;;;;;;8.53;3.43;;;10.20;94.60;;;;;;944529;149;27369;-78
2022/09/21 01:34:10;;;;;;;6.27;3.30;;;10.20;94.60;;;;;;943911;149;27344;-78
2022/09/21 01:36:37;;;;;;;5.63;3.60;;;10.10;94.60;;;;;;943014;149;27809;-78
2022/09/21 01:39:06;;;;;;;6.53;3.60;;;10.10;94.70;;;;;;944496;149;27458;-78
2022/09/21 01:41:33;;;;;;;9.30;4.03;;;10.10;94.70;;;;;;943888;149;27456;-78
2022/09/21 01:44:01;;;;;;;11.07;3.80;;;10.00;94.80;;;;;;944194;149;27354;-78
2022/09/21 01:46:26;;;;;;;11.67;4.13;;;10.00;94.90;;;;;;943940;149;27337;-78
2022/09/21 01:48:53;;;;;;;10.53;4.37;;;10.00;94.90;;;;;;943523;149;27356;-78
2022/09/21 01:51:19;;;;;;;10.57;4.33;;;10.00;95.00;;;;;;944453;149;27399;-78
2022/09/21 01:53:48;;;;;;;11.30;4.27;;;9.90;95.00;;;;;;943579;149;27354;-78
2022/09/21 01:56:18;;;;;;;9.37;4.53;;;9.90;95.20;;;;;;942916;149;27305;-78
2022/09/21 01:58:45;;;;;;;16.67;4.67;;;9.90;95.30;;;;;;943812;149;27380;-78
2022/09/21 02:01:11;;;;;;;8.80;3.97;;;9.90;95.50;;;;;;944668;149;27356;-78
2022/09/21 02:03:46;;;;;;;17.53;4.33;;;9.90;95.60;;;;;;933516;150;27422;-78
2022/09/21 02:06:13;;;;;;;8.13;4.30;;;9.90;95.60;;;;;;949500;147;27316;-78
2022/09/21 02:08:40;;;;;;;5.43;3.73;;;9.90;95.60;;;;;;949497;147;27916;-78
2022/09/21 02:11:06;;;;;;;9.17;4.07;;;9.90;95.70;;;;;;942881;149;27371;-78
2022/09/21 02:13:33;;;;;;;7.60;3.90;;;9.90;95.80;;;;;;926131;150;27366;-78
2022/09/21 02:16:02;;;;;;;7.67;3.97;;;9.90;95.80;;;;;;931139;150;27386;-78
2022/09/21 02:18:41;;;;;;;6.73;4.10;;;9.90;95.90;;;;;;946905;147;27456;-78
2022/09/21 02:21:08;;;;;;;8.80;4.13;;;9.90;95.80;;;;;;940445;149;27323;-78
2022/09/21 02:23:37;;;;;;;12.27;4.63;;;9.90;95.70;;;;;;939483;149;27466;-75
2022/09/21 02:26:09;;;;;;;17.77;4.20;;;9.90;95.80;;;;;;940346;149;27459;-75
2022/09/21 02:28:48;;;;;;;14.20;4.23;;;9.90;95.80;;;;;;948753;147;28250;-76
2022/09/21 02:31:32;;;;;;;17.03;3.93;;;9.90;95.70;;;;;;949606;147;27850;-76
2022/09/21 02:34:02;;;;;;;11.80;3.77;;;9.90;95.70;;;;;;927171;150;27354;-76
2022/09/21 02:36:31;;;;;;;22.53;5.00;;;9.90;95.70;;;;;;932624;150;27376;-77
2022/09/21 02:39:09;;;;;;;16.00;3.80;;;9.90;95.70;;;;;;953908;146;27479;-76
2022/09/21 02:41:38;;;;;;;23.70;4.80;;;9.90;95.80;;;;;;963991;146;27302;-77
2022/09/21 02:44:08;;;;;;;27.33;4.83;;;9.90;95.70;;;;;;940220;149;27500;-76
2022/09/21 02:46:34;;;;;;;25.60;5.10;;;9.90;95.90;;;;;;946270;148;27444;-75
2022/09/21 02:49:05;;;;;;;32.20;5.60;;;9.90;96.00;;;;;;945233;148;27305;-76
2022/09/21 02:51:31;;;;;;;16.03;4.67;;;9.90;96.00;;;;;;944535;149;27448;-75
2022/09/21 02:53:57;;;;;;;24.73;4.70;;;9.90;96.00;;;;;;946738;149;27372;-75
2022/09/21 02:56:24;;;;;;;25.00;5.40;;;9.90;96.10;;;;;;942515;148;27381;-75
2022/09/21 02:58:53;;;;;;;15.70;4.83;;;9.90;96.10;;;;;;962744;146;28895;-74
2022/09/21 03:01:17;;;;;;;25.00;4.70;;;9.90;96.00;;;;;;963943;146;27311;-74
2022/09/21 03:03:43;;;;;;;35.20;6.17;;;10.00;96.00;;;;;;947685;148;27324;-75
2022/09/21 03:06:10;;;;;;;35.83;5.57;;;10.00;96.00;;;;;;963283;146;27430;-76
2022/09/21 03:08:37;;;;;;;35.23;5.67;;;10.00;96.00;;;;;;946885;149;27337;-74
2022/09/21 03:11:03;;;;;;;53.07;7.40;;;9.90;96.00;;;;;;947766;148;27453;-75
2022/09/21 03:13:30;;;;;;;58.63;6.70;;;10.00;96.00;;;;;;945983;148;27367;-75
2022/09/21 03:15:59;;;;;;;52.67;7.63;;;10.00;96.10;;;;;;964468;146;27298;-75
2022/09/21 03:18:26;;;;;;;56.53;8.20;;;10.00;96.20;;;;;;965125;146;27287;-76
2022/09/21 03:20:52;;;;;;;49.87;7.30;;;10.00;96.30;;;;;;964206;146;27447;-75
2022/09/21 03:23:19;;;;;;;55.20;7.67;;;10.00;96.50;;;;;;946685;148;27367;-75
2022/09/21 03:25:45;;;;;;;51.03;6.40;;;10.00;96.60;;;;;;964360;146;27387;-74
2022/09/21 03:28:12;;;;;;;65.93;7.30;;;10.00;96.70;;;;;;947372;148;27342;-75
2022/09/21 03:30:39;;;;;;;63.53;6.93;;;10.00;96.70;;;;;;958811;148;27834;-75
2022/09/21 03:33:05;;;;;;;62.13;7.30;;;10.10;96.70;;;;;;965410;146;27414;-75
2022/09/21 03:35:34;;;;;;;50.53;6.23;;;10.10;96.80;;;;;;964674;146;27350;-75
2022/09/21 03:37:58;;;;;;;60.87;5.83;;;10.10;96.90;;;;;;964410;146;27241;-75
2022/09/21 03:40:26;;;;;;;45.03;5.63;;;10.10;96.90;;;;;;947991;148;27374;-75
2022/09/21 03:42:51;;;;;;;45.60;5.90;;;10.10;96.90;;;;;;949981;148;27363;-75
2022/09/21 03:45:18;;;;;;;25.07;4.07;;;10.10;96.90;;;;;;947029;149;27484;-76
2022/09/21 03:47:45;;;;;;;30.27;4.83;;;10.20;97.20;;;;;;957246;147;27370;-75
2022/09/21 03:50:11;;;;;;;26.40;4.07;;;10.20;96.90;;;;;;957328;148;27309;-76
2022/09/21 03:52:38;;;;;;;19.80;3.37;;;10.20;96.90;;;;;;957850;148;27294;-75
2022/09/21 03:55:05;;;;;;;13.50;3.00;;;10.20;96.90;;;;;;958850;148;27236;-75
2022/09/21 03:57:31;;;;;;;31.27;4.67;;;10.20;96.90;;;;;;959405;148;27335;-75
2022/09/21 03:59:58;;;;;;;11.83;3.40;;;10.20;96.90;;;;;;958558;148;27422;-75
2022/09/21 04:02:24;;;;;;;21.27;3.33;;;10.20;96.70;;;;;;957868;148;27418;-75
2022/09/21 04:04:51;;;;;;;17.87;2.83;;;10.20;96.60;;;;;;959169;148;27276;-75
2022/09/21 04:07:17;;;;;;;19.23;3.00;;;10.10;96.50;;;;;;955251;147;27371;-75
2022/09/21 04:09:44;;;;;;;14.47;2.73;;;10.10;96.40;;;;;;957158;148;27275;-75
2022/09/21 04:12:11;;;;;;;12.03;2.70;;;10.10;96.30;;;;;;960209;148;27913;-76
2022/09/21 04:14:37;;;;;;;9.30;2.10;;;10.10;96.30;;;;;;958641;148;27330;-75
2022/09/21 04:17:04;;;;;;;16.47;3.00;;;10.10;96.30;;;;;;959537;148;27298;-75
2022/09/21 04:19:30;;;;;;;5.07;2.20;;;10.00;96.40;;;;;;957550;148;27388;-75
2022/09/21 04:21:57;;;;;;;6.43;2.63;;;10.00;96.40;;;;;;957380;148;27447;-76
2022/09/21 04:24:24;;;;;;;11.47;2.30;;;10.00;96.50;;;;;;958961;148;27407;-76
2022/09/21 04:26:50;;;;;;;13.07;2.27;;;10.00;96.40;;;;;;959146;148;27334;-75
2022/09/21 04:29:17;;;;;;;14.93;2.80;;;10.00;96.50;;;;;;963771;146;27325;-75
2022/09/21 04:31:43;;;;;;;8.93;2.30;;;10.00;96.60;;;;;;964047;146;27310;-75
2022/09/21 04:34:10;;;;;;;13.40;2.23;;;9.90;96.60;;;;;;958183;147;27259;-75
2022/09/21 04:36:36;;;;;;;18.13;2.70;;;10.00;96.60;;;;;;964923;146;27376;-75
2022/09/21 04:39:03;;;;;;;14.70;2.90;;;10.00;96.50;;;;;;947768;148;27361;-74
2022/09/21 04:41:30;;;;;;;13.50;2.67;;;10.00;96.60;;;;;;942038;148;27378;-74
2022/09/21 04:43:56;;;;;;;5.10;2.33;;;9.90;96.70;;;;;;957578;149;28255;-75
2022/09/21 04:46:23;;;;;;;7.53;2.50;;;9.90;96.80;;;;;;958662;148;27365;-74
2022/09/21 04:48:49;;;;;;;3.13;2.17;;;9.90;97.00;;;;;;964113;146;27293;-75
2022/09/21 04:51:16;;;;;;;6.00;2.53;;;10.00;97.10;;;;;;963107;146;27326;-78
2022/09/21 04:53:43;;;;;;;18.60;3.23;;;10.00;97.10;;;;;;959234;148;27334;-77
2022/09/21 04:56:09;;;;;;;35.47;6.43;;;10.00;97.20;;;;;;956306;149;27311;-77
2022/09/21 04:58:36;;;;;;;30.83;6.57;;;10.00;97.20;;;;;;937767;148;27318;-76
2022/09/21 05:01:04;;;;;;;26.40;7.20;;;10.00;96.90;;;;;;943648;149;27772;-76
2022/09/21 05:03:30;;;;;;;59.17;8.37;;;10.00;97.00;;;;;;946251;149;27385;-76
2022/09/21 05:05:55;;;;;;;55.20;8.27;;;10.00;96.80;;;;;;953233;148;27444;-75
2022/09/21 05:11:07;;;;;;;60.73;8.60;;;10.00;96.40;;;;;;944419;148;27787;-76
2022/09/21 05:13:33;;;;;;;25.00;6.33;;;10.00;96.40;;;;;;945471;149;27415;-76
2022/09/21 05:16:00;;;;;;;11.83;4.73;;;9.90;96.50;;;;;;947236;148;27332;-76
2022/09/21 05:18:27;;;;;;;47.63;6.47;;;9.90;96.70;;;;;;944207;149;27410;-77
2022/09/21 05:20:56;;;;;;;38.37;5.30;;;9.90;97.00;;;;;;955231;148;27327;-76
2022/09/21 05:23:23;;;;;;;34.57;5.43;;;9.90;97.00;;;;;;944532;149;27437;-75
2022/09/21 05:25:49;;;;;;;14.20;3.83;;;9.90;97.10;;;;;;963066;146;27413;-75
2022/09/21 05:28:16;;;;;;;36.33;5.83;;;9.90;97.20;;;;;;947639;148;27425;-76
2022/09/21 05:30:42;;;;;;;37.83;5.23;;;9.90;97.30;;;;;;946036;149;27465;-77
2022/09/21 05:33:10;;;;;;;15.20;4.20;;;10.00;97.50;;;;;;945787;149;27457;-77
2022/09/21 05:35:42;;;;;;;20.77;5.00;;;10.00;97.60;;;;;;963609;146;27299;-76
2022/09/21 05:38:11;;;;;;;16.73;4.10;;;10.00;97.80;;;;;;918489;149;27381;-76
2022/09/21 05:40:37;;;;;;;12.57;3.77;;;10.00;97.90;;;;;;961453;146;27436;-76
2022/09/21 05:43:04;;;;;;;11.90;3.73;;;10.10;98.10;;;;;;950668;147;27694;-77
2022/09/21 05:45:31;;;;;;;14.43;3.60;;;10.10;98.20;;;;;;949521;147;28009;-76
2022/09/21 05:48:19;;;;;;;11.23;3.23;;;10.10;98.00;;;;;;948393;146;27307;-75
2022/09/21 05:50:57;;;;;;;21.83;4.13;;;10.20;98.40;;;;;;930789;149;27319;-76
2022/09/21 05:53:48;;;;;;;18.47;3.50;;;10.20;98.40;;;;;;932860;150;27348;-77
2022/09/21 05:56:14;;;;;;;14.30;3.03;;;10.20;98.30;;;;;;933281;149;27857;-76
2022/09/21 05:58:50;;;;;;;30.63;5.07;;;10.30;98.20;;;;;;931019;149;27357;-76
2022/09/21 06:01:31;;;;;;;56.87;7.10;;;10.30;98.20;;;;;;948522;147;28656;-76
2022/09/21 06:03:58;;;;;;;35.07;4.90;;;10.30;98.20;;;;;;934703;149;27299;-75
2022/09/21 06:06:24;;;;;;;23.23;4.20;;;10.40;98.00;;;;;;949277;147;27305;-75
2022/09/21 06:08:51;;;;;;;17.57;3.03;;;10.40;98.00;;;;;;944398;149;27309;-75
2022/09/21 06:11:18;;;;;;;38.63;4.60;;;10.40;98.10;;;;;;926361;150;27360;-75
2022/09/21 06:13:44;;;;;;;19.50;3.77;;;10.50;98.20;;;;;;934802;149;27350;-75
2022/09/21 06:16:11;;;;;;;16.07;3.53;;;10.50;98.30;;;;;;926544;150;27327;-75
2022/09/21 06:18:41;;;;;;;34.37;5.27;;;10.50;98.30;;;;;;949661;147;27397;-75
2022/09/21 06:21:07;;;;;;;41.10;5.33;;;10.60;98.40;;;;;;950039;147;27344;-76
2022/09/21 06:23:34;;;;;;;28.30;4.60;;;10.60;98.30;;;;;;950373;147;27308;-77
2022/09/21 06:26:00;;;;;;;31.17;4.03;;;10.70;98.20;;;;;;948480;147;27336;-75
2022/09/21 06:28:27;;;;;;;38.10;5.50;;;10.70;98.20;;;;;;948449;147;28519;-75
2022/09/21 06:30:53;;;;;;;9.53;2.67;;;10.70;98.30;;;;;;948187;147;27347;-75
2022/09/21 06:33:22;;;;;;;9.53;2.60;;;10.80;98.60;;;;;;947698;147;28179;-75
2022/09/21 06:35:58;;;;;;;41.27;4.97;;;10.80;98.70;;;;;;930591;150;27300;-76
2022/09/21 06:38:25;;;;;;;121.00;9.97;;;10.90;98.50;;;;;;931806;149;27368;-76
2022/09/21 06:40:52;;;;;;;39.77;4.67;;;10.90;98.00;;;;;;925306;150;27346;-75
2022/09/21 06:43:18;;;;;;;17.70;3.40;;;11.00;98.00;;;;;;962103;145;27420;-75
2022/09/21 06:45:54;;;;;;;65.90;6.17;;;11.00;98.10;;;;;;943098;149;27279;-75
2022/09/21 06:48:20;;;;;;;24.83;4.03;;;11.00;97.90;;;;;;956058;148;27436;-75
2022/09/21 06:50:47;;;;;;;35.33;4.67;;;11.10;98.10;;;;;;956903;148;27890;-76
2022/09/21 06:53:13;;;;;;;43.80;4.93;;;11.10;98.10;;;;;;963465;146;27287;-75
2022/09/21 06:55:40;;;;;;;51.33;5.60;;;11.20;98.10;;;;;;944298;148;27317;-75
2022/09/21 06:58:06;;;;;;;37.63;5.67;;;11.20;97.90;;;;;;944106;149;27471;-75
2022/09/21 07:00:33;;;;;;;22.37;4.03;;;11.20;97.90;;;;;;947230;148;27425;-76
2022/09/21 07:02:59;;;;;;;40.73;5.47;;;11.30;98.20;;;;;;942257;149;27369;-75
2022/09/21 07:05:26;;;;;;;16.63;4.07;;;11.40;98.40;;;;;;965053;146;27380;-75
2022/09/21 07:07:56;;;;;;;18.93;4.50;;;11.40;98.40;;;;;;952985;147;27339;-75
2022/09/21 07:10:22;;;;;;;20.30;4.80;;;11.50;98.60;;;;;;939209;148;27324;-75
2022/09/21 07:12:50;;;;;;;30.63;5.17;;;11.60;98.90;;;;;;956166;147;27330;-76
2022/09/21 07:15:15;;;;;;;9.27;3.60;;;11.70;99.10;;;;;;964624;146;27419;-75
2022/09/21 07:17:42;;;;;;;11.63;3.80;;;11.90;99.10;;;;;;944339;149;27488;-75
2022/09/21 07:20:08;;;;;;;22.30;3.97;;;12.00;99.00;;;;;;945413;149;27344;-75
2022/09/21 07:22:35;;;;;;;18.73;4.23;;;12.10;98.70;;;;;;945751;148;27320;-74
2022/09/21 07:25:02;;;;;;;15.47;3.57;;;12.20;98.50;;;;;;943567;149;27401;-74
2022/09/21 07:27:28;;;;;;;16.23;3.77;;;12.30;98.30;;;;;;963223;146;27334;-76
2022/09/21 07:29:55;;;;;;;30.63;6.90;;;12.40;98.00;;;;;;945739;149;27374;-75
2022/09/21 07:32:22;;;;;;;24.33;4.20;;;12.40;97.60;;;;;;946859;148;27452;-75
2022/09/21 07:34:48;;;;;;;5.93;3.87;;;12.50;97.20;;;;;;945877;148;27353;-74
2022/09/21 07:37:15;;;;;;;20.63;4.83;;;12.60;97.10;;;;;;963412;146;27345;-75
2022/09/21 07:39:41;;;;;;;8.63;3.50;;;12.70;96.90;;;;;;946988;149;27378;-76
2022/09/21 07:42:08;;;;;;;5.47;3.47;;;12.70;96.90;;;;;;943977;148;27405;-74
2022/09/21 07:44:34;;;;;;;18.80;5.07;;;12.80;96.90;;;;;;946897;147;27429;-74
2022/09/21 07:47:02;;;;;;;11.83;4.70;;;12.80;96.50;;;;;;941567;149;27342;-75
2022/09/21 07:49:28;;;;;;;15.37;5.10;;;12.90;96.20;;;;;;948289;147;27390;-74
2022/09/21 07:51:54;;;;;;;13.10;4.90;;;12.90;96.10;;;;;;950626;147;27389;-76
2022/09/21 07:54:21;;;;;;;11.43;4.63;;;12.90;95.80;;;;;;925862;150;27363;-74
2022/09/21 07:59:32;;;;;;;4.93;4.23;;;13.00;95.80;;;;;;940374;149;27916;-75
2022/09/21 08:01:59;;;;;;;3.97;3.57;;;13.00;96.10;;;;;;942183;149;27759;-75
2022/09/21 08:04:25;;;;;;;7.40;5.40;;;13.10;96.40;;;;;;940113;149;27424;-75
2022/09/21 08:06:52;;;;;;;6.90;3.80;;;13.10;96.80;;;;;;938354;149;27437;-74
2022/09/21 08:09:18;;;;;;;4.60;4.00;;;13.20;96.90;;;;;;939824;149;27373;-75
2022/09/21 08:11:45;;;;;;;4.40;4.00;;;13.30;97.10;;;;;;940432;149;27411;-74
2022/09/21 08:14:18;;;;;;;5.07;3.83;;;13.40;97.00;;;;;;941169;149;27341;-75
2022/09/21 08:16:38;;;;;;;4.67;4.20;;;13.50;96.60;;;;;;939972;149;27383;-74
2022/09/21 08:19:05;;;;;;;4.37;3.83;;;13.60;96.40;;;;;;941505;149;27700;-76
2022/09/21 08:21:31;;;;;;;8.57;4.00;;;13.70;96.10;;;;;;941139;149;27453;-74
2022/09/21 08:23:58;;;;;;;4.57;3.90;;;13.80;95.70;;;;;;941910;149;27271;-75
2022/09/21 08:26:25;;;;;;;4.12;3.83;;;13.90;95.50;;;;;;940401;149;27367;-75
2022/09/21 08:28:51;;;;;;;4.90;4.40;;;14.00;95.70;;;;;;941105;149;27407;-76
2022/09/21 08:31:20;;;;;;;10.32;4.67;;;14.10;95.90;;;;;;941819;149;27415;-76
2022/09/21 08:33:47;;;;;;;4.00;3.70;;;14.20;95.80;;;;;;939227;149;27357;-75
2022/09/21 08:36:13;;;;;;;4.03;3.65;;;14.40;96.40;;;;;;940076;149;27404;-75
2022/09/21 08:38:40;;;;;;;4.62;3.83;;;14.50;96.30;;;;;;941022;149;27427;-75
2022/09/21 08:41:43;;;;;;;4.70;4.30;;;14.80;96.20;;;;;;941279;149;27880;-76
2022/09/21 08:44:16;;;;;;;4.47;3.37;;;15.00;95.90;;;;;;934871;150;27351;-75
2022/09/21 08:46:43;;;;;;;4.47;3.95;;;15.30;96.00;;;;;;934836;149;27633;-76
2022/09/21 08:49:18;;;;;;;4.45;4.05;;;15.50;96.20;;;;;;948292;147;27436;-75
2022/09/21 08:51:47;;;;;;;3.72;3.42;;;15.90;96.00;;;;;;948309;147;27359;-75
2022/09/21 08:54:23;;;;;;;5.33;3.33;;;16.20;96.20;;;;;;949577;147;27307;-75
2022/09/21 08:56:50;;;;;;;3.70;3.40;;;16.60;96.40;;;;;;947115;147;27333;-75
2022/09/21 08:59:16;;;;;;;4.17;3.80;;;17.10;96.60;;;;;;949758;147;27322;-76
2022/09/21 09:01:58;;;;;;;3.17;2.92;;;17.60;95.50;;;;;;950501;147;27352;-77
2022/09/21 09:04:28;;;;;;;3.35;3.00;;;18.10;94.30;;;;;;948990;146;27374;-75
2022/09/21 09:06:57;;;;;;;3.08;2.83;;;18.60;93.20;;;;;;934451;150;27436;-76
2022/09/21 09:09:36;;;;;;;3.30;2.75;;;19.10;92.50;;;;;;949616;147;27289;-77
2022/09/21 09:12:27;;;;;;;3.55;3.25;;;19.60;91.60;;;;;;933456;149;27431;-76
2022/09/21 09:14:59;;;;;;;3.42;3.12;;;20.30;90.70;;;;;;932524;150;27344;-76
2022/09/21 09:17:44;;;;;;;3.08;2.87;;;20.80;88.60;;;;;;942059;148;27942;-75
2022/09/21 09:20:13;;;;;;;3.17;2.98;;;21.30;84.10;;;;;;940302;149;28942;-75
2022/09/21 09:22:40;;;;;;;3.45;3.08;;;21.80;82.30;;;;;;947505;147;27285;-75
2022/09/21 09:25:06;;;;;;;3.27;2.98;;;22.20;81.40;;;;;;939956;149;27337;-76
2022/09/21 09:27:33;;;;;;;3.80;3.15;;;22.70;80.70;;;;;;939712;149;27396;-76
2022/09/21 09:30:22;;;;;;;3.25;2.80;;;23.10;79.40;;;;;;940103;149;27365;-75
2022/09/21 09:32:56;;;;;;;2.75;2.55;;;23.60;76.50;;;;;;940753;149;27475;-75
2022/09/21 09:35:38;;;;;;;3.17;2.87;;;24.00;74.30;;;;;;940143;149;27343;-75
2022/09/21 09:38:23;;;;;;;2.62;2.42;;;24.20;72.10;;;;;;946273;147;27325;-75
2022/09/21 09:40:55;;;;;;;2.70;2.50;;;24.50;70.80;;;;;;928763;149;27423;-75
2022/09/21 09:43:37;;;;;;;2.25;2.05;;;24.60;69.90;;;;;;934832;148;27435;-77
2022/09/21 09:46:18;;;;;;;2.47;2.27;;;24.70;69.00;;;;;;968388;145;27335;-75
2022/09/21 09:49:00;;;;;;;2.15;1.95;;;24.70;68.50;;;;;;967867;145;27347;-75
2022/09/21 09:51:27;;;;;;;2.33;2.20;;;24.80;68.20;;;;;;941867;147;27319;-75
2022/09/21 09:53:53;;;;;;;2.62;2.42;;;24.80;67.50;;;;;;951542;148;27340;-75
2022/09/21 09:56:20;;;;;;;2.60;2.40;;;24.80;66.40;;;;;;970439;145;27268;-76
2022/09/21 09:58:49;;;;;;;3.40;2.98;;;24.80;65.00;;;;;;954422;147;27785;-76
2022/09/21 10:01:40;;;;;;;2.72;2.52;;;24.70;63.90;;;;;;948583;148;27325;-76
2022/09/21 10:04:07;;;;;;;2.20;2.10;;;24.60;62.90;;;;;;969813;145;27310;-76
2022/09/21 10:06:33;;;;;;;2.67;2.30;;;24.40;62.60;;;;;;969224;145;27383;-75
2022/09/21 10:09:00;;;;;;;2.75;2.40;;;24.20;62.20;;;;;;971012;145;27349;-76
2022/09/21 10:11:35;;;;;;;1.90;1.80;;;24.00;62.10;;;;;;963064;147;27415;-77
2022/09/21 10:14:08;;;;;;;2.75;2.02;;;23.80;61.80;;;;;;951457;148;27378;-76
2022/09/21 10:16:34;;;;;;;1.65;1.50;;;23.60;61.90;;;;;;949693;148;27378;-75
2022/09/21 10:19:01;;;;;;;1.80;1.50;;;23.50;61.90;;;;;;962173;147;27395;-75
2022/09/21 10:21:33;;;;;;;2.10;1.90;;;23.30;61.60;;;;;;949034;148;27333;-75
2022/09/21 10:24:06;;;;;;;1.90;1.60;;;23.10;61.00;;;;;;963577;147;27406;-75
2022/09/21 10:26:35;;;;;;;2.22;1.55;;;22.90;60.80;;;;;;949321;148;27341;-75
2022/09/21 10:29:02;;;;;;;1.10;1.10;;;22.60;61.20;;;;;;949906;148;27328;-75
2022/09/21 10:31:29;;;;;;;1.10;1.10;;;22.40;61.30;;;;;;950058;148;27330;-75
2022/09/21 10:34:04;;;;;;;1.50;1.37;;;22.20;61.50;;;;;;954929;148;28012;-75
2022/09/21 10:36:31;;;;;;;1.60;1.22;;;22.00;61.80;;;;;;951803;148;27386;-74
2022/09/21 10:38:57;;;;;;;1.57;1.47;;;21.80;62.20;;;;;;969376;145;27328;-75
2022/09/21 10:41:24;;;;;;;1.57;1.47;;;21.70;62.40;;;;;;964743;145;27442;-75
2022/09/21 10:43:53;;;;;;;2.25;1.37;;;21.50;62.50;;;;;;950065;148;27466;-75
2022/09/21 10:46:17;;;;;;;1.60;1.50;;;21.40;62.50;;;;;;963467;146;27256;-77
2022/09/21 10:48:46;;;;;;;2.33;1.50;;;21.30;62.60;;;;;;962244;146;27369;-77
2022/09/21 10:51:19;;;;;;;1.42;1.10;;;21.20;62.90;;;;;;966080;146;27339;-75
2022/09/21 10:53:45;;;;;;;1.37;1.10;;;21.20;63.20;;;;;;952798;147;27409;-76
2022/09/21 10:56:12;;;;;;;0.95;0.62;;;21.10;62.90;;;;;;954262;148;27356;-74
2022/09/21 10:58:39;;;;;;;1.80;1.25;;;21.00;62.70;;;;;;952354;149;27358;-75
2022/09/21 11:01:12;;;;;;;2.40;1.22;;;20.90;62.80;;;;;;952623;149;27419;-77
2022/09/21 11:03:53;;;;;;;1.50;1.40;;;20.90;63.20;;;;;;952922;149;27363;-75
2022/09/21 11:06:29;;;;;;;2.15;1.00;;;20.80;63.50;;;;;;955676;149;27330;-76
2022/09/21 11:09:01;;;;;;;1.62;1.17;;;20.80;63.70;;;;;;957278;149;27323;-75
2022/09/21 11:11:43;;;;;;;1.32;0.90;;;20.80;64.00;;;;;;953146;149;27298;-75
2022/09/21 11:14:09;;;;;;;1.10;1.00;;;20.70;64.00;;;;;;954438;149;27346;-77
2022/09/21 11:16:51;;;;;;;1.37;1.27;;;20.70;64.20;;;;;;954131;149;27468;-74
2022/09/21 11:19:38;;;;;;;2.25;0.80;;;20.70;64.20;;;;;;955475;149;27314;-76
2022/09/21 11:22:05;;;;;;;0.93;0.93;;;20.80;64.20;;;;;;955293;149;27239;-76
2022/09/21 11:24:50;;;;;;;0.90;0.90;;;20.80;64.10;;;;;;954271;149;27303;-76
2022/09/21 11:27:28;;;;;;;3.10;0.90;;;20.80;63.70;;;;;;953418;149;27451;-76
2022/09/21 11:30:06;;;;;;;2.30;0.90;;;20.80;63.50;;;;;;954685;149;27344;-75
2022/09/21 11:32:51;;;;;;;1.50;0.85;;;20.80;63.40;;;;;;953808;149;27312;-75
2022/09/21 11:35:36;;;;;;;0.68;0.68;;;20.80;63.40;;;;;;953549;149;27315;-75
2022/09/21 11:38:12;;;;;;;0.98;0.90;;;20.80;63.40;;;;;;953920;148;27385;-75
2022/09/21 11:41:05;;;;;;;0.50;0.50;;;20.80;63.40;;;;;;955089;149;27358;-75
2022/09/21 11:43:41;;;;;;;0.62;0.62;;;20.80;63.30;;;;;;953879;149;27460;-75
2022/09/21 11:46:14;;;;;;;0.60;0.60;;;20.90;63.40;;;;;;949241;149;27321;-75
2022/09/21 11:48:52;;;;;;;0.75;0.75;;;20.90;63.40;;;;;;947814;150;27376;-75
2022/09/21 11:51:39;;;;;;;2.10;0.90;;;21.00;63.50;;;;;;949031;150;27397;-76
2022/09/21 11:54:24;;;;;;;0.70;0.70;;;21.10;63.80;;;;;;947368;150;27443;-75
2022/09/21 11:57:17;;;;;;;0.93;0.68;;;21.30;63.90;;;;;;940722;150;27282;-75
2022/09/21 12:00:04;;;;;;;0.80;0.80;;;21.50;63.40;;;;;;949761;150;27863;-76
2022/09/21 12:02:36;;;;;;;0.70;0.70;;;21.70;63.10;;;;;;948287;150;27355;-75
2022/09/21 12:05:11;;;;;;;0.65;0.65;;;21.80;62.60;;;;;;946188;150;27409;-76
2022/09/21 12:07:41;;;;;;;0.50;0.50;;;21.90;62.30;;;;;;948684;150;27321;-76
2022/09/21 12:10:22;;;;;;;0.72;0.72;;;22.00;62.10;;;;;;948367;150;27426;-77
2022/09/21 12:12:57;;;;;;;2.15;0.75;;;22.20;62.00;;;;;;947277;150;27367;-75
2022/09/21 12:15:42;;;;;;;1.20;0.68;;;22.20;61.40;;;;;;947099;149;28131;-75
2022/09/21 12:18:08;;;;;;;0.55;0.55;;;22.20;60.80;;;;;;943765;149;27368;-75
2022/09/21 12:20:38;;;;;;;1.42;0.78;;;22.30;60.60;;;;;;943768;150;27410;-75
2022/09/21 12:23:07;;;;;;;1.87;0.78;;;22.30;60.30;;;;;;946425;150;27324;-75
2022/09/21 12:25:39;;;;;;;0.72;0.70;;;22.30;60.10;;;;;;947579;149;27316;-75
2022/09/21 12:28:23;;;;;;;0.62;0.62;;;22.30;59.90;;;;;;949214;148;27448;-74
2022/09/21 12:30:51;;;;;;;1.15;0.80;;;22.30;59.70;;;;;;947648;150;27322;-75
2022/09/21 12:33:24;;;;;;;1.60;0.90;;;22.30;59.80;;;;;;948523;149;27398;-75
2022/09/21 12:35:55;;;;;;;0.60;0.55;;;22.30;59.30;;;;;;947614;149;27355;-75
2022/09/21 12:38:37;;;;;;;2.05;1.10;;;22.30;59.40;;;;;;947335;149;27409;-77
2022/09/21 12:41:09;;;;;;;0.95;0.80;;;22.30;59.30;;;;;;949444;150;27446;-75
2022/09/21 12:43:57;;;;;;;1.00;0.78;;;22.30;59.20;;;;;;948010;149;27393;-75
2022/09/21 12:46:29;;;;;;;1.02;0.50;;;22.30;59.00;;;;;;957847;147;27307;-74
2022/09/21 12:48:56;;;;;;;0.50;0.47;;;22.40;59.00;;;;;;963309;147;27387;-75
2022/09/21 12:51:31;;;;;;;0.78;0.75;;;22.40;58.90;;;;;;962902;147;27403;-77
2022/09/21 12:53:57;;;;;;;0.70;0.50;;;22.40;58.50;;;;;;964232;147;27311;-74
2022/09/21 12:56:55;;;;;;;0.57;0.57;;;22.40;58.20;;;;;;963489;147;27401;-75
2022/09/21 12:59:36;;;;;;;1.52;0.88;;;22.30;58.00;;;;;;962719;147;27290;-74
2022/09/21 13:02:21;;;;;;;0.85;0.60;;;22.30;58.30;;;;;;957626;147;27387;-77
2022/09/21 13:05:06;;;;;;;0.95;0.90;;;22.20;58.20;;;;;;960135;147;27343;-76
2022/09/21 13:07:51;;;;;;;0.55;0.55;;;22.10;58.10;;;;;;945702;147;27331;-77